createdAt,value
2023-02-03T00:00:45.187Z,86.72
2023-02-03T00:01:45.168Z,86.72
2023-02-03T00:02:45.171Z,86.61
2023-02-03T00:03:45.143Z,86.47
2023-02-03T00:04:45.133Z,86.58
2023-02-03T00:05:45.112Z,86.58
2023-02-03T00:06:45.116Z,86.58
2023-02-03T00:07:45.153Z,86.47
2023-02-03T00:08:45.095Z,86.58
2023-02-03T00:09:45.086Z,86.47
2023-02-03T00:10:45.053Z,86.58
2023-02-03T00:11:45.050Z,86.52
2023-02-03T00:12:45.034Z,86.61
2023-02-03T00:13:45.036Z,86.72
2023-02-03T00:14:45.032Z,86.68
2023-02-03T00:15:45.015Z,86.58
2023-02-03T00:16:45.078Z,86.58
2023-02-03T00:17:44.995Z,86.68
2023-02-03T00:18:44.978Z,86.58
2023-02-03T00:19:44.975Z,86.47
2023-02-03T00:20:44.965Z,86.47
2023-02-03T00:21:44.968Z,86.47
2023-02-03T00:22:44.936Z,86.47
2023-02-03T00:23:44.913Z,86.47
2023-02-03T00:24:44.909Z,86.58
2023-02-03T00:25:44.909Z,86.58
2023-02-03T00:26:44.917Z,86.47
2023-02-03T00:27:44.956Z,86.37
2023-02-03T00:28:44.884Z,86.27
2023-02-03T00:29:44.866Z,86.37
2023-02-03T00:30:44.850Z,86.37
2023-02-03T00:31:44.957Z,86.37
2023-02-03T00:32:44.815Z,86.27
2023-02-03T00:33:44.819Z,86.27
2023-02-03T00:34:44.816Z,86.27
2023-02-03T00:35:44.802Z,86.37
2023-02-03T00:36:44.796Z,86.37
2023-02-03T00:37:44.783Z,86.37
2023-02-03T00:38:44.757Z,86.37
2023-02-03T00:39:44.760Z,86.37
2023-02-03T00:40:44.755Z,86.37
2023-02-03T00:41:44.758Z,86.47
2023-02-03T00:42:44.715Z,86.47
2023-02-03T00:43:44.736Z,86.47
2023-02-03T00:44:44.699Z,86.47
2023-02-03T00:45:44.714Z,86.47
2023-02-03T00:46:44.687Z,86.47
2023-02-03T00:47:44.678Z,86.37
2023-02-03T00:48:44.671Z,86.27
2023-02-03T00:49:44.660Z,86.27
2023-02-03T00:50:44.639Z,86.37
2023-02-03T00:51:44.648Z,86.27
2023-02-03T00:52:44.621Z,86.37
2023-02-03T00:53:44.618Z,86.37
2023-02-03T00:54:44.615Z,86.37
2023-02-03T00:55:44.612Z,86.47
2023-02-03T00:56:44.577Z,86.47
2023-02-03T00:57:44.568Z,86.47
2023-02-03T00:58:44.558Z,86.58
2023-02-03T00:59:44.569Z,86.47
2023-02-03T01:00:44.569Z,86.47
2023-02-03T01:01:44.523Z,86.58
2023-02-03T01:02:44.579Z,86.58
2023-02-03T01:03:44.517Z,86.58
2023-02-03T01:04:44.510Z,86.68
2023-02-03T01:05:44.492Z,86.79
2023-02-03T01:06:44.470Z,86.79
2023-02-03T01:07:44.460Z,86.79
2023-02-03T01:08:44.453Z,86.79
2023-02-03T01:09:44.442Z,86.88
2023-02-03T01:10:44.431Z,86.88
2023-02-03T01:11:44.419Z,86.99
2023-02-03T01:12:44.410Z,86.99
2023-02-03T01:13:44.405Z,86.88
2023-02-03T01:14:44.382Z,86.99
2023-02-03T01:15:44.376Z,86.99
2023-02-03T01:16:44.396Z,86.88
2023-02-03T01:17:44.403Z,86.88
2023-02-03T01:18:44.343Z,86.79
2023-02-03T01:19:44.354Z,86.88
2023-02-03T01:20:44.310Z,86.88
2023-02-03T01:21:44.302Z,86.99
2023-02-03T01:22:44.298Z,87.13
2023-02-03T01:23:44.291Z,87.24
2023-02-03T01:24:44.278Z,87.24
2023-02-03T01:25:44.280Z,87.24
2023-02-03T01:26:44.272Z,87.24
2023-02-03T01:27:44.257Z,87.24
2023-02-03T01:28:44.225Z,87.24
2023-02-03T01:29:44.243Z,87.24
2023-02-03T01:30:44.332Z,87.24
2023-02-03T01:31:44.355Z,87.34
2023-02-03T01:32:44.220Z,87.24
2023-02-03T01:33:44.184Z,87.24
2023-02-03T01:34:44.201Z,87.24
2023-02-03T01:35:44.177Z,87.24
2023-02-03T01:36:44.232Z,87.24
2023-02-03T01:37:44.156Z,87.24
2023-02-03T01:38:44.146Z,87.24
2023-02-03T01:39:44.133Z,87.24
2023-02-03T01:40:44.124Z,87.24
2023-02-03T01:41:44.109Z,87.24
2023-02-03T01:42:44.092Z,87.24
2023-02-03T01:43:44.105Z,87.24
2023-02-03T01:44:44.086Z,87.34
2023-02-03T01:45:44.102Z,87.34
2023-02-03T01:46:44.066Z,87.44
2023-02-03T01:47:44.044Z,87.44
2023-02-03T01:48:44.023Z,87.44
2023-02-03T01:49:44.023Z,87.54
2023-02-03T01:50:44.012Z,87.54
2023-02-03T01:51:44.008Z,87.54
2023-02-03T01:52:44.026Z,87.44
2023-02-03T01:53:43.973Z,87.54
2023-02-03T01:54:43.957Z,87.54
2023-02-03T01:55:43.983Z,87.65
2023-02-03T01:56:43.946Z,87.65
2023-02-03T01:57:43.926Z,87.54
2023-02-03T01:58:43.919Z,87.54
2023-02-03T01:59:43.916Z,87.65
2023-02-03T02:00:43.937Z,87.65
2023-02-03T02:01:43.993Z,87.65
2023-02-03T02:02:43.909Z,87.60
2023-02-03T02:03:43.870Z,87.60
2023-02-03T02:04:43.857Z,87.60
2023-02-03T02:05:43.891Z,87.60
2023-02-03T02:06:43.837Z,87.71
2023-02-03T02:07:43.844Z,87.71
2023-02-03T02:08:43.827Z,87.71
2023-02-03T02:09:43.809Z,87.81
2023-02-03T02:10:43.789Z,87.81
2023-02-03T02:11:43.815Z,88.02
2023-02-03T02:12:43.806Z,88.12
2023-02-03T02:13:43.768Z,88.12
2023-02-03T02:14:43.745Z,88.12
2023-02-03T02:15:43.815Z,88.12
2023-02-03T02:16:43.729Z,88.12
2023-02-03T02:17:43.728Z,88.12
2023-02-03T02:18:43.699Z,88.12
2023-02-03T02:19:43.698Z,88.12
2023-02-03T02:20:43.691Z,88.12
2023-02-03T02:21:43.679Z,88.12
2023-02-03T02:22:43.693Z,88.12
2023-02-03T02:23:43.659Z,88.12
2023-02-03T02:24:43.665Z,88.02
2023-02-03T02:25:43.629Z,88.02
2023-02-03T02:26:43.623Z,87.92
2023-02-03T02:27:43.657Z,87.81
2023-02-03T02:28:43.591Z,87.81
2023-02-03T02:29:43.624Z,87.71
2023-02-03T02:30:43.630Z,87.71
2023-02-03T02:31:43.711Z,87.60
2023-02-03T02:32:43.575Z,87.51
2023-02-03T02:33:43.550Z,87.51
2023-02-03T02:34:43.587Z,87.51
2023-02-03T02:35:43.532Z,87.40
2023-02-03T02:36:43.559Z,87.30
2023-02-03T02:37:43.525Z,87.40
2023-02-03T02:38:43.525Z,87.30
2023-02-03T02:39:43.514Z,87.30
2023-02-03T02:40:43.483Z,87.19
2023-02-03T02:41:43.473Z,87.19
2023-02-03T02:42:43.502Z,87.30
2023-02-03T02:43:43.481Z,87.30
2023-02-03T02:44:43.447Z,87.30
2023-02-03T02:45:43.429Z,87.30
2023-02-03T02:46:43.494Z,87.30
2023-02-03T02:47:43.405Z,87.30
2023-02-03T02:48:43.425Z,87.30
2023-02-03T02:49:43.389Z,87.40
2023-02-03T02:50:43.400Z,87.40
2023-02-03T02:51:43.386Z,87.26
2023-02-03T02:52:43.377Z,87.19
2023-02-03T02:53:43.381Z,87.26
2023-02-03T02:54:43.335Z,87.26
2023-02-03T02:55:43.344Z,87.26
2023-02-03T02:56:43.336Z,87.26
2023-02-03T02:57:43.315Z,87.26
2023-02-03T02:58:43.305Z,87.30
2023-02-03T02:59:43.285Z,87.26
2023-02-03T03:00:43.293Z,87.26
2023-02-03T03:01:43.316Z,87.26
2023-02-03T03:02:43.263Z,87.15
2023-02-03T03:03:43.257Z,87.15
2023-02-03T03:04:43.288Z,87.15
2023-02-03T03:05:43.223Z,87.15
2023-02-03T03:06:43.207Z,87.15
2023-02-03T03:07:43.217Z,87.15
2023-02-03T03:08:43.200Z,87.15
2023-02-03T03:09:43.176Z,87.15
2023-02-03T03:10:43.196Z,87.15
2023-02-03T03:11:43.163Z,87.05
2023-02-03T03:12:43.173Z,87.15
2023-02-03T03:13:43.150Z,87.30
2023-02-03T03:14:43.128Z,87.26
2023-02-03T03:15:43.176Z,87.30
2023-02-03T03:16:43.099Z,87.30
2023-02-03T03:17:43.108Z,87.30
2023-02-03T03:18:43.088Z,87.30
2023-02-03T03:19:43.087Z,87.30
2023-02-03T03:20:43.087Z,87.30
2023-02-03T03:21:43.064Z,87.40
2023-02-03T03:22:43.048Z,87.30
2023-02-03T03:23:43.028Z,87.30
2023-02-03T03:24:43.021Z,87.30
2023-02-03T03:25:43.027Z,87.30
2023-02-03T03:26:42.999Z,87.30
2023-02-03T03:27:43.041Z,87.19
2023-02-03T03:28:42.981Z,87.19
2023-02-03T03:29:42.973Z,87.19
2023-02-03T03:30:43.001Z,87.19
2023-02-03T03:31:43.008Z,87.19
2023-02-03T03:32:42.968Z,87.30
2023-02-03T03:33:42.933Z,87.30
2023-02-03T03:34:42.911Z,87.30
2023-02-03T03:35:42.930Z,87.19
2023-02-03T03:36:42.936Z,87.19
2023-02-03T03:37:42.895Z,87.15
2023-02-03T03:38:42.878Z,87.05
2023-02-03T03:39:42.898Z,87.05
2023-02-03T03:40:42.886Z,87.05
2023-02-03T03:41:42.843Z,87.05
2023-02-03T03:42:42.841Z,87.05
2023-02-03T03:43:42.821Z,86.95
2023-02-03T03:44:42.812Z,87.05
2023-02-03T03:45:42.834Z,87.05
2023-02-03T03:46:42.832Z,87.05
2023-02-03T03:47:42.817Z,87.05
2023-02-03T03:48:42.763Z,87.05
2023-02-03T03:49:42.772Z,86.95
2023-02-03T03:50:42.747Z,87.05
2023-02-03T03:51:42.752Z,87.05
2023-02-03T03:52:42.732Z,86.74
2023-02-03T03:53:42.753Z,86.85
2023-02-03T03:54:42.714Z,86.85
2023-02-03T03:55:42.695Z,86.95
2023-02-03T03:56:42.683Z,86.85
2023-02-03T03:57:42.685Z,86.74
2023-02-03T03:58:42.665Z,86.74
2023-02-03T03:59:42.680Z,86.85
2023-02-03T04:00:42.633Z,86.85
2023-02-03T04:01:42.816Z,86.85
2023-02-03T04:02:42.817Z,86.74
2023-02-03T04:03:42.638Z,86.74
2023-02-03T04:04:42.603Z,86.85
2023-02-03T04:05:42.633Z,86.74
2023-02-03T04:06:42.575Z,86.74
2023-02-03T04:07:42.564Z,86.74
2023-02-03T04:08:42.549Z,86.74
2023-02-03T04:09:42.544Z,86.74
2023-02-03T04:10:42.580Z,86.85
2023-02-03T04:11:42.523Z,86.85
2023-02-03T04:12:42.503Z,86.85
2023-02-03T04:13:42.505Z,86.95
2023-02-03T04:14:42.486Z,87.05
2023-02-03T04:15:42.509Z,87.05
2023-02-03T04:16:42.490Z,87.15
2023-02-03T04:17:42.483Z,87.26
2023-02-03T04:18:42.451Z,87.36
2023-02-03T04:19:42.448Z,87.81
2023-02-03T04:20:42.481Z,88.02
2023-02-03T04:21:42.420Z,88.33
2023-02-03T04:22:42.426Z,88.64
2023-02-03T04:23:42.427Z,88.95
2023-02-03T04:24:42.389Z,89.05
2023-02-03T04:25:42.451Z,89.56
2023-02-03T04:26:42.355Z,89.56
2023-02-03T04:27:42.411Z,89.87
2023-02-03T04:28:42.356Z,90.08
2023-02-03T04:29:42.346Z,89.87
2023-02-03T04:30:42.369Z,90.39
2023-02-03T04:31:42.377Z,90.49
2023-02-03T04:32:42.296Z,90.49
2023-02-03T04:33:42.324Z,90.59
2023-02-03T04:34:42.298Z,91.11
2023-02-03T04:35:42.269Z,91.31
2023-02-03T04:36:42.263Z,91.42
2023-02-03T04:37:42.284Z,91.52
2023-02-03T04:38:42.252Z,91.52
2023-02-03T04:39:42.227Z,91.66
2023-02-03T04:40:42.208Z,91.87
2023-02-03T04:41:42.230Z,91.87
2023-02-03T04:42:42.206Z,91.56
2023-02-03T04:43:42.192Z,91.46
2023-02-03T04:44:42.169Z,91.77
2023-02-03T04:45:42.260Z,92.08
2023-02-03T04:46:42.158Z,92.29
2023-02-03T04:47:42.208Z,92.49
2023-02-03T04:48:42.172Z,92.49
2023-02-03T04:49:42.134Z,92.59
2023-02-03T04:50:42.100Z,92.90
2023-02-03T04:51:42.123Z,92.80
2023-02-03T04:52:42.089Z,92.80
2023-02-03T04:53:42.079Z,92.80
2023-02-03T04:54:42.078Z,93.21
2023-02-03T04:55:42.082Z,93.21
2023-02-03T04:56:42.063Z,93.11
2023-02-03T04:57:42.062Z,93.41
2023-02-03T04:58:42.023Z,93.62
2023-02-03T04:59:42.021Z,93.62
2023-02-03T05:00:42.042Z,93.31
2023-02-03T05:01:41.989Z,93.31
2023-02-03T05:02:41.989Z,93.35
2023-02-03T05:03:42.043Z,93.56
2023-02-03T05:04:41.974Z,93.56
2023-02-03T05:05:41.950Z,93.52
2023-02-03T05:06:41.941Z,93.73
2023-02-03T05:07:41.930Z,93.62
2023-02-03T05:08:41.930Z,93.52
2023-02-03T05:09:41.928Z,93.41
2023-02-03T05:10:41.891Z,93.52
2023-02-03T05:11:41.902Z,93.21
2023-02-03T05:12:41.892Z,93.05
2023-02-03T05:13:41.881Z,92.94
2023-02-03T05:14:41.868Z,92.94
2023-02-03T05:15:41.868Z,93.15
2023-02-03T05:16:41.856Z,93.46
2023-02-03T05:17:41.859Z,93.87
2023-02-03T05:18:41.819Z,93.87
2023-02-03T05:19:41.827Z,93.77
2023-02-03T05:20:41.789Z,93.77
2023-02-03T05:21:41.799Z,93.87
2023-02-03T05:22:41.784Z,93.87
2023-02-03T05:23:41.773Z,93.87
2023-02-03T05:24:41.763Z,94.08
2023-02-03T05:25:41.766Z,94.08
2023-02-03T05:26:41.734Z,94.18
2023-02-03T05:27:41.725Z,93.98
2023-02-03T05:28:41.703Z,93.98
2023-02-03T05:29:41.717Z,94.18
2023-02-03T05:30:41.743Z,94.28
2023-02-03T05:31:41.744Z,94.49
2023-02-03T05:32:41.666Z,94.59
2023-02-03T05:33:41.673Z,94.59
2023-02-03T05:34:42.482Z,94.38
2023-02-03T05:35:41.648Z,94.49
2023-02-03T05:36:41.625Z,94.28
2023-02-03T05:37:42.568Z,94.38
2023-02-03T05:38:41.617Z,94.49
2023-02-03T05:39:41.609Z,94.38
2023-02-03T05:40:41.623Z,94.38
2023-02-03T05:41:41.622Z,94.28
2023-02-03T05:42:41.565Z,94.28
2023-02-03T05:43:41.631Z,94.38
2023-02-03T05:44:41.647Z,94.38
2023-02-03T05:45:41.573Z,94.49
2023-02-03T05:46:41.525Z,94.49
2023-02-03T05:47:41.517Z,94.38
2023-02-03T05:48:41.506Z,94.59
2023-02-03T05:49:41.517Z,94.59
2023-02-03T05:50:41.480Z,94.59
2023-02-03T05:51:42.157Z,94.59
2023-02-03T05:52:41.472Z,94.70
2023-02-03T05:53:42.496Z,94.80
2023-02-03T05:54:41.469Z,94.80
2023-02-03T05:55:42.181Z,94.70
2023-02-03T05:56:41.443Z,94.70
2023-02-03T05:57:41.472Z,94.59
2023-02-03T05:58:41.417Z,94.49
2023-02-03T05:59:41.508Z,94.59
2023-02-03T06:00:41.388Z,94.28
2023-02-03T06:01:41.361Z,94.18
2023-02-03T06:02:41.363Z,94.18
2023-02-03T06:03:43.202Z,94.18
2023-02-03T06:04:41.365Z,93.66
2023-02-03T06:05:41.398Z,93.66
2023-02-03T06:06:41.318Z,93.77
2023-02-03T06:07:41.317Z,93.87
2023-02-03T06:08:41.297Z,93.62
2023-02-03T06:09:41.287Z,93.52
2023-02-03T06:10:41.282Z,93.31
2023-02-03T06:11:41.270Z,93.21
2023-02-03T06:12:41.248Z,93.21
2023-02-03T06:13:41.248Z,93.31
2023-02-03T06:14:41.218Z,93.31
2023-02-03T06:15:41.309Z,93.31
2023-02-03T06:16:41.277Z,93.31
2023-02-03T06:17:41.225Z,93.21
2023-02-03T06:18:41.184Z,93.01
2023-02-03T06:19:41.202Z,93.21
2023-02-03T06:20:41.182Z,93.11
2023-02-03T06:21:41.160Z,93.01
2023-02-03T06:22:41.159Z,92.90
2023-02-03T06:23:41.129Z,93.21
2023-02-03T06:24:41.139Z,93.52
2023-02-03T06:25:41.100Z,93.52
2023-02-03T06:26:41.094Z,93.41
2023-02-03T06:27:41.123Z,93.52
2023-02-03T06:28:41.069Z,93.77
2023-02-03T06:29:41.099Z,93.98
2023-02-03T06:30:41.204Z,94.08
2023-02-03T06:31:41.150Z,94.28
2023-02-03T06:32:41.041Z,94.49
2023-02-03T06:33:41.040Z,94.80
2023-02-03T06:34:41.016Z,94.70
2023-02-03T06:35:41.011Z,94.90
2023-02-03T06:36:41.021Z,95.00
2023-02-03T06:37:40.992Z,95.00
2023-02-03T06:38:40.978Z,94.80
2023-02-03T06:39:40.979Z,94.70
2023-02-03T06:40:40.942Z,94.80
2023-02-03T06:41:40.982Z,94.80
2023-02-03T06:42:40.931Z,94.80
2023-02-03T06:43:40.953Z,94.90
2023-02-03T06:44:40.908Z,95.10
2023-02-03T06:45:40.910Z,95.31
2023-02-03T06:46:40.898Z,95.52
2023-02-03T06:47:40.884Z,95.42
2023-02-03T06:48:40.863Z,95.31
2023-02-03T06:49:40.885Z,95.31
2023-02-03T06:50:40.854Z,95.62
2023-02-03T06:51:40.838Z,95.42
2023-02-03T06:52:40.847Z,95.62
2023-02-03T06:53:40.842Z,95.52
2023-02-03T06:54:40.814Z,95.36
2023-02-03T06:55:40.795Z,95.25
2023-02-03T06:56:40.813Z,95.56
2023-02-03T06:57:40.781Z,95.77
2023-02-03T06:58:40.754Z,95.77
2023-02-03T06:59:40.801Z,96.08
2023-02-03T07:00:40.756Z,96.08
2023-02-03T07:01:40.776Z,95.56
2023-02-03T07:02:40.737Z,95.56
2023-02-03T07:03:40.722Z,95.77
2023-02-03T07:04:40.684Z,95.87
2023-02-03T07:05:40.748Z,95.98
2023-02-03T07:06:40.684Z,96.08
2023-02-03T07:07:40.665Z,95.87
2023-02-03T07:08:40.644Z,95.77
2023-02-03T07:09:40.648Z,95.87
2023-02-03T07:10:40.627Z,95.87
2023-02-03T07:11:40.632Z,95.98
2023-02-03T07:12:40.624Z,95.87
2023-02-03T07:13:40.603Z,95.87
2023-02-03T07:14:40.621Z,95.98
2023-02-03T07:15:40.629Z,96.08
2023-02-03T07:16:40.583Z,95.87
2023-02-03T07:17:40.573Z,95.56
2023-02-03T07:18:47.289Z,95.56
2023-02-03T07:19:41.553Z,95.67
2023-02-03T07:20:40.549Z,95.87
2023-02-03T07:21:40.507Z,95.46
2023-02-03T07:22:40.506Z,95.56
2023-02-03T07:23:40.513Z,95.25
2023-02-03T07:24:40.517Z,95.05
2023-02-03T07:25:40.469Z,94.95
2023-02-03T07:26:40.482Z,94.95
2023-02-03T07:27:40.482Z,94.84
2023-02-03T07:28:40.436Z,94.43
2023-02-03T07:29:40.455Z,94.43
2023-02-03T07:30:40.427Z,94.64
2023-02-03T07:31:40.552Z,94.74
2023-02-03T07:32:40.400Z,94.84
2023-02-03T07:33:40.406Z,94.95
2023-02-03T07:34:40.395Z,94.84
2023-02-03T07:35:40.367Z,94.84
2023-02-03T07:36:40.378Z,94.38
2023-02-03T07:37:40.573Z,94.38
2023-02-03T07:38:40.366Z,94.59
2023-02-03T07:39:40.339Z,94.38
2023-02-03T07:40:40.328Z,94.38
2023-02-03T07:41:40.343Z,94.49
2023-02-03T07:42:41.007Z,94.49
2023-02-03T07:43:40.309Z,94.08
2023-02-03T07:44:40.990Z,94.18
2023-02-03T07:45:40.278Z,94.38
2023-02-03T07:46:41.029Z,94.38
2023-02-03T07:47:40.242Z,94.08
2023-02-03T07:48:40.250Z,94.08
2023-02-03T07:49:40.228Z,94.08
2023-02-03T07:50:40.216Z,94.38
2023-02-03T07:51:40.190Z,94.28
2023-02-03T07:52:40.201Z,94.18
2023-02-03T07:53:40.181Z,93.98
2023-02-03T07:54:40.188Z,93.87
2023-02-03T07:55:40.184Z,93.98
2023-02-03T07:56:40.149Z,93.98
2023-02-03T07:57:40.143Z,93.98
2023-02-03T07:58:40.120Z,94.18
2023-02-03T07:59:40.149Z,94.18
2023-02-03T08:00:40.122Z,93.98
2023-02-03T08:01:40.133Z,93.98
2023-02-03T08:02:40.091Z,93.98
2023-02-03T08:03:40.096Z,93.87
2023-02-03T08:04:40.100Z,94.08
2023-02-03T08:05:40.061Z,94.18
2023-02-03T08:06:40.053Z,93.98
2023-02-03T08:07:40.029Z,93.98
2023-02-03T08:08:40.157Z,93.98
2023-02-03T08:09:40.028Z,93.98
2023-02-03T08:10:40.058Z,93.87
2023-02-03T08:11:39.998Z,93.87
2023-02-03T08:12:40.007Z,93.98
2023-02-03T08:13:39.992Z,93.87
2023-02-03T08:14:39.970Z,93.77
2023-02-03T08:15:39.943Z,93.83
2023-02-03T08:16:39.971Z,93.62
2023-02-03T08:17:39.935Z,93.46
2023-02-03T08:18:39.910Z,93.52
2023-02-03T08:19:39.912Z,93.62
2023-02-03T08:20:39.912Z,93.31
2023-02-03T08:21:39.874Z,93.31
2023-02-03T08:22:39.873Z,93.52
2023-02-03T08:23:39.872Z,93.73
2023-02-03T08:24:39.922Z,93.83
2023-02-03T08:25:39.857Z,93.93
2023-02-03T08:26:39.851Z,94.13
2023-02-03T08:27:39.844Z,94.24
2023-02-03T08:28:39.821Z,94.13
2023-02-03T08:29:39.821Z,94.34
2023-02-03T08:30:39.800Z,94.55
2023-02-03T08:31:39.876Z,94.76
2023-02-03T08:32:39.787Z,94.76
2023-02-03T08:33:39.784Z,94.24
2023-02-03T08:34:39.764Z,94.45
2023-02-03T08:35:39.733Z,94.45
2023-02-03T08:36:39.734Z,94.55
2023-02-03T08:37:39.704Z,94.65
2023-02-03T08:38:39.695Z,94.55
2023-02-03T08:39:39.711Z,94.65
2023-02-03T08:40:39.692Z,94.85
2023-02-03T08:41:39.670Z,94.92
2023-02-03T08:42:39.671Z,94.92
2023-02-03T08:43:39.676Z,95.02
2023-02-03T08:44:39.651Z,95.12
2023-02-03T08:45:39.659Z,95.23
2023-02-03T08:46:39.614Z,95.12
2023-02-03T08:47:39.623Z,95.02
2023-02-03T08:48:39.605Z,95.23
2023-02-03T08:49:39.725Z,95.02
2023-02-03T08:50:39.569Z,94.71
2023-02-03T08:51:39.555Z,94.81
2023-02-03T08:52:39.576Z,94.92
2023-02-03T08:53:39.545Z,94.71
2023-02-03T08:54:39.549Z,94.71
2023-02-03T08:55:39.525Z,94.92
2023-02-03T08:56:39.524Z,95.02
2023-02-03T08:57:39.504Z,94.81
2023-02-03T08:58:39.495Z,94.71
2023-02-03T08:59:39.497Z,94.60
2023-02-03T09:00:39.503Z,94.60
2023-02-03T09:01:39.457Z,94.71
2023-02-03T09:02:39.462Z,94.30
2023-02-03T09:03:39.445Z,94.15
2023-02-03T09:04:39.458Z,94.26
2023-02-03T09:05:39.417Z,94.36
2023-02-03T09:06:39.445Z,94.15
2023-02-03T09:07:39.405Z,93.84
2023-02-03T09:08:39.524Z,94.05
2023-02-03T09:09:39.406Z,94.15
2023-02-03T09:10:39.368Z,94.26
2023-02-03T09:11:39.367Z,93.95
2023-02-03T09:12:39.361Z,93.95
2023-02-03T09:13:39.328Z,93.95
2023-02-03T09:14:39.326Z,94.15
2023-02-03T09:15:39.343Z,94.05
2023-02-03T09:16:39.359Z,93.84
2023-02-03T09:17:39.299Z,93.84
2023-02-03T09:18:39.279Z,93.95
2023-02-03T09:19:39.467Z,93.84
2023-02-03T09:20:39.284Z,93.74
2023-02-03T09:21:42.978Z,93.43
2023-02-03T09:22:40.273Z,93.49
2023-02-03T09:23:39.219Z,93.59
2023-02-03T09:24:39.240Z,93.08
2023-02-03T09:25:39.208Z,92.46
2023-02-03T09:26:39.217Z,92.57
2023-02-03T09:27:39.218Z,92.63
2023-02-03T09:28:39.182Z,92.42
2023-02-03T09:29:39.180Z,92.42
2023-02-03T09:30:39.182Z,92.73
2023-02-03T09:31:39.216Z,92.21
2023-02-03T09:32:39.171Z,91.80
2023-02-03T09:33:39.111Z,91.39
2023-02-03T09:34:39.123Z,91.39
2023-02-03T09:35:39.100Z,91.49
2023-02-03T09:36:39.707Z,91.39
2023-02-03T09:37:39.097Z,91.19
2023-02-03T09:38:39.101Z,91.45
2023-02-03T09:39:39.072Z,91.25
2023-02-03T09:40:39.111Z,90.42
2023-02-03T09:41:39.050Z,89.91
2023-02-03T09:42:39.043Z,89.91
2023-02-03T09:43:39.017Z,90.22
2023-02-03T09:44:39.133Z,89.19
2023-02-03T09:45:39.074Z,89.70
2023-02-03T09:46:38.992Z,90.22
2023-02-03T09:47:38.976Z,90.12
2023-02-03T09:48:38.965Z,89.70
2023-02-03T09:49:38.980Z,89.91
2023-02-03T09:50:38.932Z,90.01
2023-02-03T09:51:38.950Z,90.01
2023-02-03T09:52:38.923Z,89.50
2023-02-03T09:53:38.954Z,89.81
2023-02-03T09:54:38.892Z,89.50
2023-02-03T09:55:38.893Z,89.76
2023-02-03T09:56:38.883Z,89.97
2023-02-03T09:57:38.873Z,89.46
2023-02-03T09:58:38.883Z,88.95
2023-02-03T09:59:38.843Z,88.74
2023-02-03T10:00:38.848Z,88.43
2023-02-03T10:01:38.873Z,88.18
2023-02-03T10:02:38.830Z,88.49
2023-02-03T10:03:38.810Z,88.08
2023-02-03T10:04:38.803Z,87.67
2023-02-03T10:05:38.793Z,88.29
2023-02-03T10:06:38.787Z,89.11
2023-02-03T10:07:38.755Z,89.31
2023-02-03T10:08:38.766Z,89.48
2023-02-03T10:09:38.726Z,89.17
2023-02-03T10:10:38.726Z,88.24
2023-02-03T10:11:38.705Z,87.84
2023-02-03T10:12:38.728Z,88.56
2023-02-03T10:13:38.705Z,88.86
2023-02-03T10:14:38.719Z,88.14
2023-02-03T10:15:38.666Z,88.35
2023-02-03T10:16:38.699Z,88.24
2023-02-03T10:17:38.663Z,87.84
2023-02-03T10:18:38.656Z,87.63
2023-02-03T10:19:38.658Z,87.53
2023-02-03T10:20:38.619Z,87.32
2023-02-03T10:21:38.642Z,86.60
2023-02-03T10:22:38.617Z,85.47
2023-02-03T10:23:38.579Z,85.89
2023-02-03T10:24:38.589Z,85.47
2023-02-03T10:25:38.558Z,85.68
2023-02-03T10:26:38.548Z,84.96
2023-02-03T10:27:38.645Z,85.06
2023-02-03T10:28:38.544Z,85.47
2023-02-03T10:29:38.532Z,85.99
2023-02-03T10:30:38.655Z,85.99
2023-02-03T10:31:38.598Z,85.38
2023-02-03T10:32:38.517Z,85.17
2023-02-03T10:33:38.497Z,85.58
2023-02-03T10:34:38.481Z,85.47
2023-02-03T10:35:38.455Z,84.96
2023-02-03T10:36:38.448Z,85.06
2023-02-03T10:37:38.448Z,85.27
2023-02-03T10:38:38.449Z,84.86
2023-02-03T10:39:38.429Z,85.06
2023-02-03T10:40:38.454Z,84.96
2023-02-03T10:41:38.386Z,84.66
2023-02-03T10:42:38.412Z,84.86
2023-02-03T10:43:38.387Z,84.86
2023-02-03T10:44:38.423Z,85.06
2023-02-03T10:45:38.371Z,84.86
2023-02-03T10:46:38.403Z,85.17
2023-02-03T10:47:38.340Z,84.96
2023-02-03T10:48:38.316Z,85.58
2023-02-03T10:49:38.309Z,85.06
2023-02-03T10:50:38.315Z,84.20
2023-02-03T10:51:39.317Z,84.52
2023-02-03T10:52:38.292Z,84.20
2023-02-03T10:53:38.420Z,84.41
2023-02-03T10:54:38.324Z,84.47
2023-02-03T10:55:38.317Z,84.37
2023-02-03T10:56:38.277Z,83.72
2023-02-03T10:57:39.014Z,83.00
2023-02-03T10:58:38.229Z,82.69
2023-02-03T10:59:38.374Z,83.41
2023-02-03T11:00:38.192Z,82.39
2023-02-03T11:01:38.254Z,82.18
2023-02-03T11:02:38.222Z,82.83
2023-02-03T11:03:38.182Z,83.55
2023-02-03T11:04:38.178Z,83.10
2023-02-03T11:05:38.245Z,82.39
2023-02-03T11:06:38.140Z,81.98
2023-02-03T11:07:38.120Z,81.81
2023-02-03T11:08:38.114Z,82.73
2023-02-03T11:09:38.115Z,82.73
2023-02-03T11:10:38.098Z,82.93
2023-02-03T11:11:38.089Z,82.83
2023-02-03T11:12:38.089Z,83.86
2023-02-03T11:13:38.138Z,83.65
2023-02-03T11:14:38.053Z,83.04
2023-02-03T11:15:38.073Z,83.04
2023-02-03T11:16:39.741Z,82.12
2023-02-03T11:17:38.025Z,83.04
2023-02-03T11:18:38.001Z,82.87
2023-02-03T11:19:37.981Z,82.46
2023-02-03T11:20:37.992Z,82.56
2023-02-03T11:21:37.981Z,83.39
2023-02-03T11:22:37.966Z,82.67
2023-02-03T11:23:37.973Z,82.46
2023-02-03T11:24:37.962Z,82.73
2023-02-03T11:25:37.981Z,82.93
2023-02-03T11:26:37.904Z,83.14
2023-02-03T11:27:38.017Z,81.50
2023-02-03T11:28:37.908Z,81.91
2023-02-03T11:29:37.884Z,82.42
2023-02-03T11:30:37.884Z,82.32
2023-02-03T11:31:38.153Z,82.32
2023-02-03T11:32:37.870Z,82.12
2023-02-03T11:33:37.838Z,82.12
2023-02-03T11:34:37.847Z,81.77
2023-02-03T11:35:37.835Z,81.20
2023-02-03T11:36:37.796Z,81.29
2023-02-03T11:37:37.849Z,81.60
2023-02-03T11:38:37.780Z,81.81
2023-02-03T11:39:37.796Z,81.40
2023-02-03T11:40:37.768Z,81.71
2023-02-03T11:41:37.753Z,81.50
2023-02-03T11:42:37.746Z,80.78
2023-02-03T11:43:37.726Z,80.88
2023-02-03T11:44:37.743Z,81.20
2023-02-03T11:45:37.737Z,80.99
2023-02-03T11:46:37.775Z,80.99
2023-02-03T11:47:37.689Z,81.09
2023-02-03T11:48:37.698Z,81.15
2023-02-03T11:49:37.679Z,81.05
2023-02-03T11:50:37.664Z,80.58
2023-02-03T11:51:37.690Z,80.78
2023-02-03T11:52:37.628Z,80.78
2023-02-03T11:53:47.864Z,80.78
2023-02-03T11:54:38.637Z,80.88
2023-02-03T11:55:37.601Z,80.68
2023-02-03T11:56:37.591Z,80.88
2023-02-03T11:57:37.630Z,81.40
2023-02-03T11:58:37.577Z,80.58
2023-02-03T11:59:37.582Z,80.27
2023-02-03T12:00:37.560Z,80.85
2023-02-03T12:01:37.549Z,80.33
2023-02-03T12:02:37.568Z,80.03
2023-02-03T12:03:37.536Z,80.33
2023-02-03T12:04:37.540Z,80.64
2023-02-03T12:05:37.506Z,81.15
2023-02-03T12:06:37.498Z,80.81
2023-02-03T12:07:37.506Z,80.54
2023-02-03T12:08:37.470Z,80.44
2023-02-03T12:09:37.453Z,79.82
2023-02-03T12:10:37.439Z,79.93
2023-02-03T12:11:37.454Z,79.93
2023-02-03T12:12:37.451Z,79.72
2023-02-03T12:13:37.429Z,79.21
2023-02-03T12:14:37.401Z,79.41
2023-02-03T12:15:37.428Z,79.82
2023-02-03T12:16:37.429Z,79.72
2023-02-03T12:17:37.373Z,79.82
2023-02-03T12:18:37.366Z,80.13
2023-02-03T12:19:37.341Z,80.03
2023-02-03T12:20:37.335Z,79.11
2023-02-03T12:21:37.361Z,79.35
2023-02-03T12:22:37.358Z,79.45
2023-02-03T12:23:37.311Z,79.45
2023-02-03T12:24:37.305Z,79.96
2023-02-03T12:25:37.311Z,79.86
2023-02-03T12:26:37.273Z,79.86
2023-02-03T12:27:37.277Z,79.66
2023-02-03T12:28:37.321Z,80.07
2023-02-03T12:29:37.254Z,80.37
2023-02-03T12:30:37.266Z,80.58
2023-02-03T12:31:37.290Z,80.37
2023-02-03T12:32:37.238Z,80.17
2023-02-03T12:33:37.196Z,79.66
2023-02-03T12:34:37.185Z,79.96
2023-02-03T12:35:37.184Z,79.35
2023-02-03T12:36:37.162Z,79.69
2023-02-03T12:37:37.156Z,80.10
2023-02-03T12:38:37.173Z,80.10
2023-02-03T12:39:37.128Z,80.31
2023-02-03T12:40:37.136Z,80.41
2023-02-03T12:41:37.112Z,80.31
2023-02-03T12:42:37.104Z,80.21
2023-02-03T12:43:37.106Z,80.21
2023-02-03T12:44:37.076Z,80.51
2023-02-03T12:45:37.125Z,80.41
2023-02-03T12:46:37.058Z,80.41
2023-02-03T12:47:37.047Z,80.51
2023-02-03T12:48:37.070Z,80.82
2023-02-03T12:49:37.064Z,80.62
2023-02-03T12:50:37.010Z,80.21
2023-02-03T12:51:37.022Z,79.90
2023-02-03T12:52:37.017Z,79.80